PWSweather.com
Personal Weather Stations
Station Observations
ESTFIQ
Santa Fe, Santa FeAR 3000

Santa FeSanta FeAR 3000

Lat: -31.637, Lon: -60.708

Elevation: 69

Station Type: WH-1081

http://galileo4.unl.edu.ar/estacion

Latest ConditionsUpdated 1:35:01 AM GMT-03:57 Sunday, Oct 20, 2019
Currently Today's Max Today's Min Today's Average
Temperature 64.9°F18.3°C 67.3°F19.6°C 64.2°F17.9°C 65.2°F18.4°C
Dew Point 48.9°F9.4°C 49.6°F9.8°C 48.4°F9.1°C 49.0°F9.4°C
Winds 3.1 mph E5.0 kmh E 6.0 mph -9.7 kmh - - 3.5 mph 5.6 kmh
Wind Gusts 7.6 mph12.2 kmh 10.7 mph17.2 kmh - -
Humidity 56% 58% 53% 56%
Pressure 30.02 in1016.6 mb 30.03 in1016.9 mb 30.02 in1016.6 mb -
Hour Temp Dew Point Humidity Winds Wind Gusts Pressure Precip Precip Rate Daily Precip Total
01:35 AM 64.9°F18.3°C 48.9°F9.4°C 56% 3.1 mph E5.0 kmh E 7.6 mph12.2 kmh 30.02 in1016.6 mb 0.00 in0.0 mm 0.00 in0.0 mm 0.00 in0.0 mm
01:30 AM 64.9°F18.3°C 49.4°F9.7°C 57% 3.8 mph E6.1 kmh E 6.9 mph11.1 kmh 30.02 in1016.6 mb 0.00 in0.0 mm 0.00 in0.0 mm 0.00 in0.0 mm
01:25 AM 64.6°F18.1°C 49.0°F9.4°C 57% 3.1 mph ENE5.0 kmh ENE 6.9 mph11.1 kmh 30.02 in1016.6 mb 0.00 in0.0 mm 0.00 in0.0 mm 0.00 in0.0 mm
01:20 AM 64.6°F18.1°C 49.0°F9.4°C 57% 2.2 mph E3.5 kmh E 5.4 mph8.7 kmh 30.02 in1016.6 mb 0.00 in0.0 mm 0.00 in0.0 mm 0.00 in0.0 mm
01:15 AM 64.4°F18.0°C 49.3°F9.6°C 58% 1.6 mph E2.6 kmh E 6.0 mph9.7 kmh 30.02 in1016.6 mb 0.00 in0.0 mm 0.00 in0.0 mm 0.00 in0.0 mm
01:10 AM 64.4°F18.0°C 49.3°F9.6°C 58% 3.1 mph E5.0 kmh E 9.2 mph14.8 kmh 30.02 in1016.6 mb 0.00 in0.0 mm 0.00 in0.0 mm 0.00 in0.0 mm
01:05 AM 64.2°F17.9°C 49.2°F9.6°C 58% 2.2 mph E3.5 kmh E 10.7 mph17.2 kmh 30.02 in1016.6 mb 0.00 in0.0 mm 0.00 in0.0 mm 0.00 in0.0 mm
01:00 AM 64.4°F18.0°C 48.9°F9.4°C 57% 6.0 mph E9.7 kmh E 10.7 mph17.2 kmh 30.02 in1016.6 mb 0.00 in0.0 mm 0.00 in0.0 mm 0.00 in0.0 mm
12:55 AM 64.8°F18.2°C 49.2°F9.6°C 57% 5.4 mph E8.7 kmh E 9.8 mph15.8 kmh 30.03 in1016.9 mb 0.00 in0.0 mm 0.00 in0.0 mm 0.00 in0.0 mm
12:50 AM 64.9°F18.3°C 49.4°F9.7°C 57% 3.1 mph E5.0 kmh E 9.8 mph15.8 kmh 30.02 in1016.6 mb 0.00 in0.0 mm 0.00 in0.0 mm 0.00 in0.0 mm
12:45 AM 64.9°F18.3°C 48.9°F9.4°C 56% 3.1 mph E5.0 kmh E 9.2 mph14.8 kmh 30.02 in1016.6 mb 0.00 in0.0 mm 0.00 in0.0 mm 0.00 in0.0 mm
12:40 AM 65.1°F18.4°C 48.6°F9.2°C 55% 6.0 mph E9.7 kmh E 9.8 mph15.8 kmh 30.03 in1016.9 mb 0.00 in0.0 mm 0.00 in0.0 mm 0.00 in0.0 mm
12:35 AM 65.3°F18.5°C 48.7°F9.3°C 55% 3.1 mph E5.0 kmh E 9.8 mph15.8 kmh 30.02 in1016.6 mb 0.00 in0.0 mm 0.00 in0.0 mm 0.00 in0.0 mm
12:30 AM 65.3°F18.5°C 48.7°F9.3°C 55% 4.5 mph E7.2 kmh E 7.6 mph12.2 kmh 30.02 in1016.6 mb 0.00 in0.0 mm 0.00 in0.0 mm 0.00 in0.0 mm
12:25 AM 65.5°F18.6°C 48.4°F9.1°C 54% 3.8 mph E6.1 kmh E 6.0 mph9.7 kmh 30.02 in1016.6 mb 0.00 in0.0 mm 0.00 in0.0 mm 0.00 in0.0 mm
12:20 AM 65.5°F18.6°C 48.4°F9.1°C 54% 3.1 mph E5.0 kmh E 6.9 mph11.1 kmh 30.02 in1016.6 mb 0.00 in0.0 mm 0.00 in0.0 mm 0.00 in0.0 mm
12:15 AM 65.5°F18.6°C 48.4°F9.1°C 54% 1.6 mph ESE2.6 kmh ESE 7.6 mph12.2 kmh 30.02 in1016.6 mb 0.00 in0.0 mm 0.00 in0.0 mm 0.00 in0.0 mm
12:10 AM 65.5°F18.6°C 48.4°F9.1°C 54% 4.5 mph ESE7.2 kmh ESE 7.6 mph12.2 kmh 30.03 in1016.9 mb 0.00 in0.0 mm 0.00 in0.0 mm 0.00 in0.0 mm
12:05 AM 67.1°F19.5°C 49.4°F9.7°C 53% 1.6 mph SE2.6 kmh SE 6.0 mph9.7 kmh 30.02 in1016.6 mb 0.00 in0.0 mm 0.00 in0.0 mm 0.00 in0.0 mm
12:00 AM 67.3°F19.6°C 49.6°F9.8°C 53% 4.5 mph SE7.2 kmh SE 9.2 mph14.8 kmh 30.02 in1016.6 mb 0.00 in0.0 mm 0.00 in0.0 mm 0.00 in0.0 mm